Time;durP1;ratioP1;P1;durP2;ratioP2;P2;SDS_P1;SDS_P2;PMS_P1;PMS_P2;Temp;Humidity;BMP_temperature;BMP_pressure;BME280_temperature;BME280_humidity;BME280_pressure;Samples;Min_cycle;Max_cycle;Signal;HPM_P1;HPM_P2
2023/10/29 00:00:08;;;;;;;3.70;2.50;;;;;;;20.36;42.24;94974.13;6018568;28;110286;-63
2023/10/29 00:03:11;;;;;;;5.03;2.70;;;;;;;20.32;42.19;94975.75;6024038;28;109326;-63
2023/10/29 00:06:14;;;;;;;5.90;2.27;;;;;;;20.80;41.32;94978.00;6028816;28;109301;-64
2023/10/29 00:09:19;;;;;;;4.53;2.50;;;;;;;20.72;41.61;94979.50;6031724;28;109589;-65
2023/10/29 00:12:22;;;;;;;4.37;2.77;;;;;;;20.82;41.39;94976.59;6020529;28;109297;-66
2023/10/29 00:15:25;;;;;;;7.00;3.03;;;;;;;20.56;41.47;94983.53;6017636;28;109316;-63
2023/10/29 00:18:29;;;;;;;5.17;2.20;;;;;;;20.30;42.22;94985.91;6017386;29;109079;-63
2023/10/29 00:21:34;;;;;;;4.63;1.73;;;;;;;20.23;42.02;94988.94;6006705;28;109286;-64
2023/10/29 00:24:39;;;;;;;2.77;2.00;;;;;;;20.45;41.90;94984.81;6017353;29;109478;-63
2023/10/29 00:27:42;;;;;;;4.37;2.17;;;;;;;20.37;41.90;94993.50;6017628;28;110022;-64
2023/10/29 00:30:45;;;;;;;4.37;2.57;;;;;;;20.64;41.54;94996.13;6019580;28;109049;-65
2023/10/29 00:33:48;;;;;;;6.37;2.13;;;;;;;20.86;41.11;94990.09;6035548;28;110270;-63
2023/10/29 00:36:51;;;;;;;4.03;2.80;;;;;;;20.48;41.72;94989.53;6023993;28;109173;-64
2023/10/29 00:39:55;;;;;;;4.93;2.23;;;;;;;20.56;41.61;94997.63;6017540;29;109844;-63
2023/10/29 00:42:59;;;;;;;4.20;2.37;;;;;;;20.59;41.31;94999.69;5996683;29;109131;-65
2023/10/29 00:46:02;;;;;;;5.33;3.03;;;;;;;20.51;41.78;95004.91;6017326;28;109117;-65
2023/10/29 00:49:06;;;;;;;5.30;2.47;;;;;;;20.26;41.97;95012.28;6017203;29;109680;-64
2023/10/29 00:52:09;;;;;;;3.00;2.10;;;;;;;20.39;41.51;95009.94;6017304;28;109271;-64
2023/10/29 00:55:14;;;;;;;5.33;3.17;;;;;;;20.58;41.75;95016.72;6008801;28;108925;-66
2023/10/29 00:58:20;;;;;;;3.77;3.00;;;;;;;20.56;41.43;95010.13;6042046;28;109128;-66
2023/10/29 01:01:25;;;;;;;4.80;2.43;;;;;;;20.18;42.09;95012.16;6040240;28;112690;-65
2023/10/29 01:04:28;;;;;;;4.80;2.97;;;;;;;20.02;42.44;95016.97;6021300;29;109129;-66
2023/10/29 01:07:32;;;;;;;4.50;2.53;;;;;;;20.23;41.65;95015.50;6010969;28;109220;-66
2023/10/29 01:10:36;;;;;;;;;;;;;;;19.96;42.25;95016.25;6021653;28;109273;-65
2023/10/29 01:13:39;;;;;;;;;;;;;;;20.22;41.78;95021.91;6021422;29;109296;-66
2023/10/29 01:16:42;;;;;;;;;;;;;;;20.21;41.90;95022.19;6022962;28;108932;-66
2023/10/29 01:19:45;;;;;;;;;;;;;;;19.98;42.18;95019.38;6043986;28;109434;-66
2023/10/29 01:22:48;;;;;;;;;;;;;;;20.31;41.68;95022.03;6024009;28;109212;-65
2023/10/29 01:25:52;;;;;;;;;;;;;;;20.38;41.68;95021.66;6026286;28;109143;-65
2023/10/29 01:28:55;;;;;;;;;;;;;;;20.73;41.04;95015.63;6015966;28;109271;-66
2023/10/29 01:31:58;;;;;;;;;;;;;;;20.67;40.90;95008.84;6020704;29;109126;-66
2023/10/29 01:35:02;;;;;;;;;;;;;;;20.35;41.19;95011.63;6021569;29;112157;-66
2023/10/29 01:38:04;;;;;;;;;;;;;;;20.43;40.92;95016.22;6020262;29;109050;-66
2023/10/29 01:41:09;;;;;;;;;;;;;;;20.71;40.76;95014.34;6009818;28;109349;-66
2023/10/29 01:44:12;;;;;;;;;;;;;;;20.74;40.62;95022.53;6020694;29;109306;-65
2023/10/29 01:47:14;;;;;;;;;;;;;;;20.71;40.30;95023.13;6035214;28;109154;-66
2023/10/29 01:50:17;;;;;;;;;;;;;;;20.68;40.44;95023.72;6038815;28;109150;-66
2023/10/29 01:53:20;;;;;;;;;;;;;;;20.56;40.79;95028.75;6024102;28;109131;-65
2023/10/29 01:56:25;;;;;;;;;;;;;;;20.53;40.78;95024.81;6020469;28;109361;-66
2023/10/29 01:59:28;;;;;;;;;;;;;;;20.21;41.20;95027.50;6020945;29;110365;-66
2023/10/29 02:02:31;;;;;;;;;;;;;;;20.36;41.43;95023.81;6009817;28;109681;-66
2023/10/29 02:05:34;;;;;;;;;;;;;;;20.64;40.84;95028.03;6020566;28;108995;-64
2023/10/29 02:08:37;;;;;;;;;;;;;;;20.45;40.84;95035.31;6019585;29;109114;-64
2023/10/29 02:11:42;;;;;;;;;;;;;;;20.19;41.27;95032.34;6022311;28;110005;-64
2023/10/29 02:14:44;;;;;;;;;;;;;;;20.30;41.16;95045.16;6009893;29;110255;-64
2023/10/29 02:17:48;;;;;;;;;;;;;;;20.24;41.26;95035.72;6019903;28;109094;-65
2023/10/29 02:20:51;;;;;;;;;;;;;;;20.23;41.26;95034.09;6022258;28;110126;-64
2023/10/29 02:23:55;;;;;;;;;;;;;;;20.42;41.09;95046.56;6029651;28;108811;-64
2023/10/29 02:26:58;;;;;;;;;;;;;;;20.35;41.34;95043.50;6018951;28;109263;-64
2023/10/29 02:30:01;;;;;;;;;;;;;;;20.39;41.07;95047.16;6044081;28;110300;-63
2023/10/29 02:33:04;;;;;;;;;;;;;;;20.61;40.69;95041.91;6024915;28;111938;-64
2023/10/29 02:36:07;;;;;;;;;;;;;;;20.41;40.73;95044.97;6013213;28;109775;-63
2023/10/29 02:39:12;;;;;;;;;;;;;;;20.43;40.91;95042.81;6017752;29;108979;-63
2023/10/29 02:42:17;;;;;;;;;;;;;;;20.40;40.92;95057.47;6030866;28;109514;-64
2023/10/29 02:45:20;;;;;;;;;;;;;;;20.32;40.81;95048.31;6035134;28;109260;-64
2023/10/29 02:48:24;;;;;;;;;;;;;;;20.07;41.07;95062.00;6023914;28;109566;-64
2023/10/29 02:51:27;;;;;;;;;;;;;;;19.72;41.65;95066.84;6020031;28;111395;-64
2023/10/29 02:54:33;;;;;;;;;;;;;;;19.46;41.94;95062.19;6019815;29;109166;-63
2023/10/29 02:57:36;;;;;;;;;;;;;;;19.51;42.09;95057.63;6033932;28;111200;-64
2023/10/29 03:00:38;;;;;;;;;;;;;;;19.73;41.69;95057.78;6026942;28;111387;-64
2023/10/29 03:03:41;;;;;;;;;;;;;;;19.93;41.58;95055.88;6041471;28;109082;-63
2023/10/29 03:06:44;;;;;;;;;;;;;;;19.82;41.73;95059.78;6036077;28;109105;-63
2023/10/29 03:09:49;;;;;;;;;;;;;;;19.83;41.50;95058.72;6013644;29;109256;-63
2023/10/29 03:12:51;;;;;;;;;;;;;;;19.57;41.92;95064.41;6014867;28;109272;-63
2023/10/29 03:15:54;;;;;;;;;;;;;;;20.18;41.23;95068.75;6019274;29;109120;-64
2023/10/29 03:18:57;;;;;;;;;;;;;;;20.39;41.00;95074.50;6041282;28;109125;-65
2023/10/29 03:22:01;;;;;;;;;;;;;;;20.47;40.60;95067.72;6007580;29;109185;-65
2023/10/29 03:25:06;;;;;;;;;;;;;;;20.23;40.81;95071.31;6019090;29;109075;-64
2023/10/29 03:28:09;;;;;;;;;;;;;;;20.23;40.68;95066.00;6018461;28;109441;-65
2023/10/29 03:31:13;;;;;;;;;;;;;;;20.03;41.21;95076.97;6020295;28;110018;-65
2023/10/29 03:34:16;;;;;;;;;;;;;;;20.16;41.04;95081.50;6017035;28;109067;-65
2023/10/29 03:37:19;;;;;;;;;;;;;;;20.15;41.14;95087.09;6018750;28;109921;-65
2023/10/29 03:40:23;;;;;;;;;;;;;;;19.99;41.31;95102.50;6018886;29;109464;-65
2023/10/29 03:43:26;;;;;;;;;;;;;;;19.88;41.29;95098.47;6018464;28;109056;-65
2023/10/29 03:46:29;;;;;;;;;;;;;;;19.44;41.92;95091.66;6010733;28;111412;-64
2023/10/29 03:49:32;;;;;;;6.80;2.90;;;;;;;19.03;42.44;95089.53;6041335;28;109213;-65
2023/10/29 03:52:35;;;;;;;5.05;2.60;;;;;;;18.69;42.86;95096.84;6039850;28;109526;-65
2023/10/29 03:55:40;;;;;;;4.82;2.70;;;;;;;18.29;43.40;95092.69;6031776;28;109268;-65
2023/10/29 03:58:43;;;;;;;5.67;2.77;;;;;;;18.38;43.97;95089.19;6020911;28;109059;-65
2023/10/29 04:01:46;;;;;;;6.22;5.53;;;;;;;18.57;43.62;95094.56;6020914;28;109599;-65
2023/10/29 04:04:49;;;;;;;7.88;6.70;;;;;;;19.01;42.61;95097.00;6040261;28;110082;-64
2023/10/29 04:08:07;;;;;;;16.90;15.37;;;;;;;19.45;41.93;95095.09;6015384;28;109193;-64
2023/10/29 04:11:12;;;;;;;10.67;9.67;;;;;;;19.79;41.39;95100.19;6015724;29;110202;-65
2023/10/29 04:14:15;;;;;;;8.02;6.60;;;;;;;19.92;41.13;95102.91;6038983;28;110917;-64
2023/10/29 04:17:18;;;;;;;11.40;10.27;;;;;;;19.99;40.99;95100.66;6016926;28;109699;-65
2023/10/29 04:20:21;;;;;;;7.13;6.43;;;;;;;19.83;41.07;95103.84;6006088;29;109275;-65
2023/10/29 04:23:24;;;;;;;6.20;4.50;;;;;;;19.82;41.11;95097.72;6015352;28;110346;-65
2023/10/29 04:26:29;;;;;;;6.30;4.30;;;;;;;19.94;41.19;95097.28;6013458;29;109156;-65
2023/10/29 04:29:32;;;;;;;5.70;3.83;;;;;;;19.83;41.12;95093.25;6011149;29;109149;-65
2023/10/29 04:32:35;;;;;;;4.80;3.20;;;;;;;19.30;41.90;95090.75;6019387;28;109199;-65
2023/10/29 04:35:38;;;;;;;5.28;2.80;;;;;;;19.16;42.33;95087.25;6023296;28;109222;-65
2023/10/29 04:38:41;;;;;;;5.72;3.33;;;;;;;18.89;43.17;95101.13;6020594;28;109171;-65
2023/10/29 04:41:46;;;;;;;5.43;3.20;;;;;;;18.38;43.71;95096.34;6010217;28;110725;-65
2023/10/29 04:44:49;;;;;;;15.60;14.00;;;;;;;18.40;44.31;95100.28;6041816;28;110351;-65
2023/10/29 04:47:52;;;;;;;13.50;12.10;;;;;;;18.45;43.76;95096.78;6025421;28;110257;-65
2023/10/29 04:50:55;;;;;;;8.55;6.30;;;;;;;18.22;44.22;95103.63;6019670;29;109353;-66
2023/10/29 04:53:59;;;;;;;6.78;5.32;;;;;;;18.28;44.29;95107.03;6009522;28;109427;-65
2023/10/29 04:57:04;;;;;;;8.82;5.20;;;;;;;18.46;44.23;95109.75;6022362;28;109239;-65
2023/10/29 05:00:09;;;;;;;5.82;4.90;;;;;;;19.09;43.18;95119.44;6043925;28;110246;-67
2023/10/29 05:03:12;;;;;;;9.52;5.10;;;;;;;18.96;42.63;95122.75;6038890;28;109293;-65
2023/10/29 05:06:19;;;;;;;6.20;4.20;;;;;;;19.14;42.36;95124.66;6036990;28;109167;-65
2023/10/29 05:09:22;;;;;;;6.68;5.35;;;;;;;19.43;41.95;95129.91;6022203;28;109003;-62
2023/10/29 05:12:26;;;;;;;7.03;5.22;;;;;;;19.47;41.96;95140.72;6018985;28;109643;-63
2023/10/29 05:15:30;;;;;;;7.60;5.83;;;;;;;19.45;41.80;95145.53;6008993;29;109064;-61
2023/10/29 05:18:33;;;;;;;9.80;7.40;;;;;;;19.50;41.78;95148.94;6019214;28;109212;-62
2023/10/29 05:21:36;;;;;;;11.90;10.70;;;;;;;19.52;41.77;95152.06;6019307;29;109333;-62
2023/10/29 05:24:39;;;;;;;9.13;7.50;;;;;;;19.50;41.52;95159.53;6040656;28;109285;-62
2023/10/29 05:27:51;;;;;;;8.50;6.70;;;;;;;19.50;41.63;95162.19;5991440;29;109791;-65
2023/10/29 05:30:55;;;;;;;9.63;6.93;;;;;;;19.70;41.35;95169.88;6017839;29;108985;-64
2023/10/29 05:33:58;;;;;;;10.40;7.53;;;;;;;19.63;42.53;95168.63;6035578;28;110302;-62
2023/10/29 05:37:01;;;;;;;7.60;6.20;;;;;;;19.59;42.31;95173.72;6023570;28;109229;-61
2023/10/29 05:40:04;;;;;;;8.00;5.20;;;;;;;19.61;42.35;95168.94;6008107;28;108876;-61
2023/10/29 05:43:09;;;;;;;6.88;5.10;;;;;;;19.60;42.29;95174.53;6018357;28;109435;-61
2023/10/29 05:46:13;;;;;;;7.45;6.03;;;;;;;19.65;42.28;95177.88;6018689;29;109212;-63
2023/10/29 05:49:16;;;;;;;8.97;6.40;;;;;;;19.66;42.25;95187.47;6027272;28;109227;-63
2023/10/29 05:52:19;;;;;;;8.85;5.60;;;;;;;19.64;42.26;95184.28;6027531;28;110460;-62
2023/10/29 05:55:22;;;;;;;7.80;5.57;;;;;;;19.63;42.30;95190.66;6018549;29;109624;-62
2023/10/29 05:58:27;;;;;;;6.13;5.00;;;;;;;19.65;42.17;95196.47;6016919;29;109354;-62
2023/10/29 06:01:30;;;;;;;7.53;5.20;;;;;;;19.75;41.88;95205.38;5994398;28;110322;-61
2023/10/29 06:04:33;;;;;;;6.38;4.70;;;;;;;19.91;41.53;95214.72;6017500;28;109306;-61
2023/10/29 06:07:37;;;;;;;5.90;4.20;;;;;;;20.07;41.27;95215.28;6018521;28;110143;-61
2023/10/29 06:10:40;;;;;;;5.88;4.35;;;;;;;20.32;40.88;95213.06;6018277;28;109107;-61
2023/10/29 06:13:44;;;;;;;6.30;4.30;;;;;;;20.49;40.17;95219.72;6007120;28;110657;-69
2023/10/29 06:16:47;;;;;;;14.43;4.18;;;;;;;20.77;40.36;95225.91;6021488;28;108844;-71
2023/10/29 06:19:51;;;;;;;20.75;4.30;;;;;;;20.67;39.98;95229.53;6021691;28;109094;-70
2023/10/29 06:22:54;;;;;;;16.65;3.80;;;;;;;20.52;40.32;95233.25;6008636;28;109144;-70
2023/10/29 06:25:57;;;;;;;21.67;5.10;;;;;;;20.61;40.79;95225.38;6012209;28;109301;-70
2023/10/29 06:29:01;;;;;;;27.20;4.78;;;;;;;20.65;40.63;95222.91;6017777;29;109041;-70
2023/10/29 06:32:05;;;;;;;33.40;6.55;;;;;;;20.78;40.74;95230.94;6028259;28;111991;-66
2023/10/29 06:35:09;;;;;;;20.75;5.40;;;;;;;21.04;40.53;95238.47;6026693;28;109869;-67
2023/10/29 06:38:13;;;;;;;15.07;5.03;;;;;;;21.09;40.24;95236.53;6035453;28;110032;-68
2023/10/29 06:41:17;;;;;;;18.63;7.00;;;;;;;21.18;40.35;95239.31;6019262;28;109089;-69
2023/10/29 06:44:21;;;;;;;18.83;10.50;;;;;;;21.29;40.73;95240.69;6021013;28;109527;-69
2023/10/29 06:47:24;;;;;;;14.23;10.60;;;;;;;21.16;40.63;95238.78;6020887;28;109694;-69
2023/10/29 06:50:27;;;;;;;13.70;10.00;;;;;;;21.31;40.34;95243.84;6041327;28;109199;-69
2023/10/29 06:53:30;;;;;;;13.53;10.00;;;;;;;21.48;40.70;95251.22;6016336;28;109482;-68
2023/10/29 06:56:34;;;;;;;16.92;10.25;;;;;;;21.42;40.54;95253.22;6020831;28;109208;-69
2023/10/29 06:59:39;;;;;;;15.60;10.40;;;;;;;21.23;41.00;95252.53;6017058;28;109600;-70
2023/10/29 07:02:42;;;;;;;11.32;8.48;;;;;;;20.97;41.61;95252.16;6031150;28;110742;-69
2023/10/29 07:05:45;;;;;;;18.17;9.40;;;;;;;21.06;41.76;95257.63;6040801;28;109080;-69
2023/10/29 07:08:48;;;;;;;18.77;14.07;;;;;;;21.30;41.46;95266.22;6022790;28;111670;-68
2023/10/29 07:11:51;;;;;;;22.67;20.27;;;;;;;21.45;41.93;95263.25;6016731;28;109245;-68
2023/10/29 07:14:56;;;;;;;18.38;14.90;;;;;;;21.63;41.30;95276.78;6016849;29;109655;-71
2023/10/29 07:18:00;;;;;;;15.43;13.73;;;;;;;21.75;41.47;95274.41;6018456;28;110580;-69
2023/10/29 07:21:04;;;;;;;17.13;12.17;;;;;;;21.85;41.32;95268.13;6008018;29;109200;-69
2023/10/29 07:24:08;;;;;;;16.93;10.33;;;;;;;22.00;42.27;95276.56;5995252;29;109146;-70
2023/10/29 07:27:11;;;;;;;14.13;7.90;;;;;;;21.98;41.85;95272.63;6011072;28;109089;-68
2023/10/29 07:30:16;;;;;;;13.17;9.00;;;;;;;22.03;42.34;95260.00;6042433;28;110182;-68
2023/10/29 07:33:19;;;;;;;16.07;9.93;;;;;;;22.14;42.65;95262.44;6015514;28;109148;-69
2023/10/29 07:36:23;;;;;;;12.30;9.80;;;;;;;22.20;42.09;95258.56;6018916;28;109479;-69
2023/10/29 07:39:26;;;;;;;13.77;11.27;;;;;;;22.13;42.59;95263.50;6018120;29;109135;-69
2023/10/29 07:42:30;;;;;;;13.60;7.43;;;;;;;21.97;41.42;95271.84;6013550;29;109615;-68
2023/10/29 07:45:34;;;;;;;10.07;6.50;;;;;;;22.06;41.33;95279.94;6000430;29;109728;-68
2023/10/29 07:48:37;;;;;;;10.53;6.87;;;;;;;22.01;41.22;95282.69;6036840;28;109169;-69
2023/10/29 07:51:40;;;;;;;8.27;6.10;;;;;;;21.99;41.69;95274.19;6023341;28;110173;-69
2023/10/29 07:54:44;;;;;;;9.90;6.73;;;;;;;21.94;40.78;95269.00;6008347;29;112382;-69
2023/10/29 07:57:47;;;;;;;11.07;7.60;;;;;;;21.88;41.11;95267.53;6029791;28;109187;-65
2023/10/29 08:00:51;;;;;;;21.53;15.83;;;;;;;21.90;42.55;95270.69;6041288;28;109367;-65
2023/10/29 08:03:55;;;;;;;15.47;12.60;;;;;;;21.98;42.17;95264.63;6021165;28;109062;-65
2023/10/29 08:06:59;;;;;;;10.93;7.17;;;;;;;21.96;41.93;95277.47;6007664;28;109268;-65
2023/10/29 08:10:02;;;;;;;9.10;6.90;;;;;;;21.99;42.49;95276.88;6017616;29;109349;-65
2023/10/29 08:13:09;;;;;;;8.77;6.70;;;;;;;21.97;42.33;95277.16;6017451;29;110151;-64
2023/10/29 08:16:14;;;;;;;10.07;6.40;;;;;;;21.99;42.17;95279.53;6014637;29;110008;-67
2023/10/29 08:19:17;;;;;;;10.10;7.07;;;;;;;21.98;41.98;95276.06;6031614;28;109914;-66
2023/10/29 08:22:20;;;;;;;11.33;6.60;;;;;;;21.99;41.71;95280.31;6024255;28;109295;-66
2023/10/29 08:25:23;;;;;;;8.90;5.90;;;;;;;22.06;41.53;95278.06;6028448;28;109114;-65
2023/10/29 08:28:27;;;;;;;8.60;5.60;;;;;;;22.06;41.90;95282.59;6007141;28;109142;-65
2023/10/29 08:31:32;;;;;;;12.57;7.33;;;;;;;22.04;41.80;95288.22;6014193;29;109284;-66
2023/10/29 08:34:35;;;;;;;8.60;6.30;;;;;;;22.11;41.82;95293.94;6016920;29;110106;-67
2023/10/29 08:37:38;;;;;;;8.50;5.90;;;;;;;22.24;42.64;95286.19;6018285;28;111843;-66
2023/10/29 08:40:41;;;;;;;8.07;6.17;;;;;;;22.20;41.97;95283.34;6005534;29;109284;-65
2023/10/29 08:43:45;;;;;;;9.73;6.03;;;;;;;22.20;41.69;95285.22;6017476;28;109146;-65
2023/10/29 08:46:50;;;;;;;9.73;5.17;;;;;;;22.24;42.11;95281.66;6017490;28;109148;-65
2023/10/29 08:49:53;;;;;;;7.80;5.30;;;;;;;22.26;41.67;95295.47;6020909;28;109388;-64
2023/10/29 08:52:57;;;;;;;7.87;5.20;;;;;;;22.27;42.44;95286.38;6005082;28;108954;-65
2023/10/29 08:56:00;;;;;;;8.00;4.70;;;;;;;22.23;42.64;95289.97;6017072;29;110732;-65
2023/10/29 08:59:04;;;;;;;7.10;5.03;;;;;;;22.20;42.19;95287.91;6022950;28;109655;-66
2023/10/29 09:02:09;;;;;;;10.67;5.07;;;;;;;22.23;42.46;95289.97;6009032;28;109141;-65
2023/10/29 09:05:12;;;;;;;11.30;5.17;;;;;;;22.26;41.93;95284.03;6009941;29;110339;-66
2023/10/29 09:08:15;;;;;;;9.13;4.93;;;;;;;22.30;41.63;95283.13;6016743;29;111090;-66
2023/10/29 09:11:19;;;;;;;8.27;4.60;;;;;;;22.34;41.75;95285.97;6017047;29;111313;-65
2023/10/29 09:14:22;;;;;;;7.10;4.77;;;;;;;22.37;41.57;95274.72;6009811;28;109909;-65
2023/10/29 09:17:26;;;;;;;9.30;4.87;;;;;;;22.47;41.79;95279.81;6015375;29;109164;-64
2023/10/29 09:20:29;;;;;;;7.93;5.10;;;;;;;22.60;41.49;95279.00;6019339;29;109137;-62
2023/10/29 09:23:32;;;;;;;9.67;5.20;;;;;;;22.60;41.97;95273.66;6019815;28;109210;-64
2023/10/29 09:26:37;;;;;;;11.00;4.60;;;;;;;22.55;41.14;95279.09;6008260;28;111563;-66
2023/10/29 09:29:41;;;;;;;9.23;4.80;;;;;;;22.56;41.48;95278.00;6042366;28;109089;-64
2023/10/29 09:32:46;;;;;;;7.50;4.70;;;;;;;22.54;41.73;95280.19;6042344;28;110141;-65
2023/10/29 09:35:49;;;;;;;7.40;3.77;;;;;;;22.43;40.28;95278.84;5992962;29;109133;-65
2023/10/29 09:38:52;;;;;;;7.07;3.73;;;;;;;22.36;39.35;95276.59;6002709;29;109282;-64
2023/10/29 09:41:58;;;;;;;6.30;3.00;;;;;;;22.23;38.98;95271.28;6020564;29;109365;-64
2023/10/29 09:45:03;;;;;;;5.50;3.40;;;;;;;22.20;39.55;95264.69;6020604;28;109991;-63
2023/10/29 09:48:09;;;;;;;4.47;2.53;;;;;;;22.16;39.59;95261.03;6009318;29;109276;-64
2023/10/29 09:51:12;;;;;;;6.40;2.90;;;;;;;22.13;39.88;95250.97;6020534;29;109502;-63
2023/10/29 09:54:15;;;;;;;4.87;2.73;;;;;;;22.10;38.79;95254.25;6036903;28;109801;-64
2023/10/29 09:57:22;;;;;;;4.00;2.50;;;;;;;22.20;38.94;95246.03;6043710;28;109092;-65
2023/10/29 10:00:26;;;;;;;8.23;3.57;;;;;;;22.25;39.31;95247.78;6016802;28;109473;-63
2023/10/29 10:03:31;;;;;;;10.47;2.37;;;;;;;22.28;39.29;95247.97;6017261;28;109342;-64
2023/10/29 10:06:37;;;;;;;4.57;2.37;;;;;;;22.27;38.60;95238.41;6019602;29;110127;-64
2023/10/29 10:09:53;;;;;;;5.83;3.20;;;;;;;22.40;39.23;95236.78;6019503;28;109142;-66
2023/10/29 10:12:56;;;;;;;4.30;2.97;;;;;;;22.47;39.26;95237.13;6014641;28;109193;-65
2023/10/29 10:16:06;;;;;;;4.30;2.97;;;;;;;22.46;39.93;95226.78;6019935;29;109223;-63
2023/10/29 10:19:15;;;;;;;7.17;2.23;;;;;;;22.44;39.83;95215.63;6033814;28;109204;-71
2023/10/29 10:22:34;;;;;;;6.50;2.50;;;;;;;22.47;38.90;95209.69;6034366;28;109821;-68
2023/10/29 10:25:38;;;;;;;5.83;2.63;;;;;;;22.53;39.35;95211.94;5998849;29;109251;-70
2023/10/29 10:28:54;;;;;;;5.40;3.13;;;;;;;22.59;39.04;95207.28;6018689;28;109364;-70
2023/10/29 10:32:01;;;;;;;6.07;2.83;;;;;;;22.65;39.14;95206.06;6016530;29;109493;-68
2023/10/29 10:35:06;;;;;;;4.30;2.43;;;;;;;22.72;38.56;95205.63;6009250;28;109215;-68
2023/10/29 10:38:10;;;;;;;3.80;2.50;;;;;;;22.71;38.86;95196.84;6025716;28;110515;-69
2023/10/29 10:41:13;;;;;;;4.83;2.63;;;;;;;22.75;38.71;95202.34;6043356;28;109210;-69
2023/10/29 10:44:18;;;;;;;3.17;2.37;;;;;;;22.74;38.92;95209.56;6022384;28;109212;-67
2023/10/29 10:47:22;;;;;;;4.47;2.70;;;;;;;22.75;38.54;95205.03;6014205;29;109269;-69
2023/10/29 10:50:28;;;;;;;4.10;2.40;;;;;;;22.77;38.54;95202.84;6030710;28;109149;-69
2023/10/29 10:53:32;;;;;;;4.27;3.00;;;;;;;22.76;39.41;95203.94;6022329;28;109179;-68
2023/10/29 10:56:37;;;;;;;5.57;3.27;;;;;;;22.76;38.96;95193.25;6006346;29;109440;-68
2023/10/29 10:59:41;;;;;;;5.53;2.70;;;;;;;22.67;39.42;95191.31;6018618;28;109069;-69
2023/10/29 11:02:44;;;;;;;4.53;2.57;;;;;;;22.64;39.58;95193.81;6013384;28;108947;-68
2023/10/29 11:05:49;;;;;;;4.30;3.07;;;;;;;22.63;40.06;95192.25;6016747;28;109388;-69
2023/10/29 11:08:53;;;;;;;7.63;4.03;;;;;;;22.61;39.70;95195.22;6011226;28;108927;-69
2023/10/29 11:11:57;;;;;;;8.20;4.10;;;;;;;22.54;40.10;95191.38;6017683;29;109519;-68
2023/10/29 11:15:13;;;;;;;4.43;3.50;;;;;;;22.54;40.64;95194.84;6019126;29;110062;-70
2023/10/29 11:18:28;;;;;;;4.37;3.30;;;;;;;22.56;40.22;95191.88;6018220;28;109225;-70
2023/10/29 11:21:33;;;;;;;5.93;3.33;;;;;;;22.57;40.32;95188.13;6024479;28;110337;-70
2023/10/29 11:24:36;;;;;;;5.60;3.27;;;;;;;22.57;39.80;95186.25;6017467;28;109200;-69
2023/10/29 11:27:44;;;;;;;4.80;3.50;;;;;;;22.54;39.79;95184.16;6017335;28;109188;-69
2023/10/29 11:31:12;;;;;;;5.13;3.27;;;;;;;22.56;40.02;95178.53;6007405;28;109476;-68
2023/10/29 11:34:34;;;;;;;6.87;3.60;;;;;;;22.50;38.89;95163.72;6019653;28;110148;-70
2023/10/29 11:37:39;;;;;;;3.97;2.40;;;;;;;22.54;38.92;95172.72;6017875;29;110358;-70
2023/10/29 11:40:42;;;;;;;3.60;2.60;;;;;;;22.58;38.57;95169.16;6015320;28;109205;-68
2023/10/29 11:43:46;;;;;;;4.87;2.83;;;;;;;22.62;38.50;95162.13;6011038;28;109264;-70
2023/10/29 11:47:05;;;;;;;4.23;2.80;;;;;;;22.61;39.11;95157.88;6015993;28;109154;-71
2023/10/29 11:50:13;;;;;;;4.83;2.97;;;;;;;22.67;38.74;95169.97;6020341;28;109227;-69
2023/10/29 11:53:26;;;;;;;6.80;3.00;;;;;;;22.69;39.07;95165.16;6009279;28;109262;-70
2023/10/29 11:56:33;;;;;;;6.73;2.67;;;;;;;22.70;39.46;95161.38;6016613;28;109372;-69
2023/10/29 11:59:53;;;;;;;5.17;2.73;;;;;;;22.69;40.08;95148.34;6015962;28;110246;-69
2023/10/29 12:02:56;;;;;;;3.53;2.80;;;;;;;22.67;40.03;95156.63;6016178;28;109266;-69
2023/10/29 12:05:59;;;;;;;8.97;3.60;;;;;;;22.67;40.17;95159.31;6006833;29;110873;-70
2023/10/29 12:09:14;;;;;;;6.55;3.30;;;;;;;22.64;40.73;95165.25;6015049;28;110598;-68
2023/10/29 12:12:17;;;;;;;7.73;3.60;;;;;;;22.66;40.62;95159.63;6014073;28;109444;-69
2023/10/29 12:15:22;;;;;;;190.45;128.57;;;;;;;22.68;41.46;95147.56;6009590;28;110633;-66
2023/10/29 12:18:26;;;;;;;40.75;27.15;;;;;;;22.74;41.10;95155.44;6009899;28;109163;-68
2023/10/29 12:21:29;;;;;;;50.53;31.55;;;;;;;22.77;41.38;95149.47;6013561;28;109202;-70
2023/10/29 12:24:34;;;;;;;79.60;51.25;;;;;;;22.78;41.32;95148.38;6024849;28;109277;-71
2023/10/29 12:27:42;;;;;;;99.93;65.57;;;;;;;22.85;41.90;95146.03;6002819;28;109155;-70
2023/10/29 12:30:47;;;;;;;111.53;71.88;;;;;;;22.93;42.52;95150.66;6015054;28;109573;-71
2023/10/29 12:33:56;;;;;;;125.82;80.57;;;;;;;22.96;42.51;95145.47;6014208;28;108912;-71
2023/10/29 12:36:59;;;;;;;128.57;83.72;;;;;;;23.00;42.89;95150.97;6014631;28;109636;-68
2023/10/29 12:40:06;;;;;;;133.75;85.88;;;;;;;23.01;42.94;95155.22;6017889;28;111226;-63
2023/10/29 12:43:09;;;;;;;133.00;83.23;;;;;;;23.06;43.80;95152.44;6016344;28;109298;-65
2023/10/29 12:46:14;;;;;;;134.70;76.60;;;;;;;23.08;44.11;95142.22;6015987;28;109596;-65
2023/10/29 12:49:22;;;;;;;117.07;72.87;;;;;;;23.10;44.56;95148.03;6014394;28;110350;-64
2023/10/29 12:52:26;;;;;;;120.33;70.57;;;;;;;23.08;44.44;95149.44;6004884;28;109177;-66
2023/10/29 12:55:30;;;;;;;117.80;69.03;;;;;;;23.04;44.49;95143.16;6028998;28;109063;-64
2023/10/29 12:58:33;;;;;;;107.67;66.57;;;;;;;23.00;44.24;95151.75;6043272;28;109166;-65
2023/10/29 13:01:36;;;;;;;104.33;59.57;;;;;;;22.99;44.42;95146.72;6013129;28;110392;-66
2023/10/29 13:04:39;;;;;;;94.47;58.10;;;;;;;22.95;43.86;95145.78;6018350;28;109512;-65
2023/10/29 13:07:43;;;;;;;89.13;53.70;;;;;;;22.95;44.11;95143.91;6016367;28;110665;-65
2023/10/29 13:10:47;;;;;;;81.57;50.40;;;;;;;22.99;43.46;95144.06;6016537;28;109250;-65
2023/10/29 13:13:53;;;;;;;73.27;47.13;;;;;;;22.95;43.32;95146.56;6006218;28;111625;-66
2023/10/29 13:17:14;;;;;;;74.53;44.23;;;;;;;23.00;43.20;95148.31;6016034;29;109138;-65
2023/10/29 13:20:26;;;;;;;71.30;43.53;;;;;;;22.99;43.38;95146.72;6017270;28;109059;-64
2023/10/29 13:23:31;;;;;;;67.93;39.53;;;;;;;23.00;43.70;95142.97;6003596;29;110219;-68
2023/10/29 13:26:43;;;;;;;61.37;38.50;;;;;;;23.01;44.02;95144.53;5997399;28;109122;-64
2023/10/29 13:29:48;;;;;;;55.20;36.90;;;;;;;22.95;43.95;95137.78;6004180;29;110382;-65
2023/10/29 13:32:52;;;;;;;56.63;34.30;;;;;;;22.90;43.69;95137.94;6015344;28;109367;-65
2023/10/29 13:35:58;;;;;;;50.63;32.30;;;;;;;22.94;43.12;95138.88;6009184;28;109113;-64
2023/10/29 13:39:09;;;;;;;42.27;27.40;;;;;;;22.93;42.75;95142.63;6006624;28;110326;-64
2023/10/29 13:42:18;;;;;;;39.93;19.97;;;;;;;22.94;41.00;95133.53;6007619;28;111706;-65
2023/10/29 13:45:22;;;;;;;32.93;17.67;;;;;;;22.93;41.08;95135.41;6019152;28;109052;-64
2023/10/29 13:48:25;;;;;;;26.43;16.40;;;;;;;22.97;41.14;95140.91;6006179;28;110024;-63
2023/10/29 13:51:29;;;;;;;26.73;16.97;;;;;;;22.99;41.83;95136.06;6018899;28;109298;-63
2023/10/29 13:54:32;;;;;;;28.13;15.83;;;;;;;22.99;41.56;95136.84;6017758;28;110678;-62
2023/10/29 13:57:36;;;;;;;24.27;14.40;;;;;;;22.98;42.28;95134.50;6011583;28;109423;-62
2023/10/29 14:00:39;;;;;;;26.70;15.37;;;;;;;22.99;42.52;95142.19;6016992;28;109136;-63
2023/10/29 14:03:42;;;;;;;23.10;14.40;;;;;;;22.99;42.14;95142.19;6017598;28;109249;-62
2023/10/29 14:06:46;;;;;;;21.23;12.50;;;;;;;22.99;42.44;95147.53;6018925;28;109123;-63
2023/10/29 14:09:49;;;;;;;24.33;13.00;;;;;;;22.99;42.80;95146.72;6007291;28;109385;-62
2023/10/29 14:12:54;;;;;;;21.03;10.90;;;;;;;23.00;42.50;95150.97;6018422;28;108821;-62
2023/10/29 14:15:57;;;;;;;15.80;10.13;;;;;;;23.00;42.34;95156.31;6017447;28;109626;-63
2023/10/29 14:19:01;;;;;;;19.93;10.70;;;;;;;23.00;42.56;95150.97;6018900;28;110271;-63
2023/10/29 14:22:04;;;;;;;14.47;9.90;;;;;;;23.01;42.67;95150.66;6008212;29;109132;-62
2023/10/29 14:25:08;;;;;;;17.37;9.90;;;;;;;23.00;43.01;95148.31;6022994;28;109078;-62